Cedar Point, North Carolina
Current Conditions -  °F | °C
As of 4:57 AM on Thursday 18 Dec 2014 (Local Time) from KNJM Reporting Station
Clear Clear  
Wind Chill: 41°   Ceiling: Unl
Heat Index: 44°   Visibility: NA
Dew Point: 37°   Wind: 6mph
Humidity: 76%   Direction: 340°NNW
Pressure: 30.11"   Gusts: NA
Location:  34.7017°N, 77.1399°W
Report Text: KNJM 180957Z AUTO 34005KT CLR 07/03 A3011 RMK AO2 SLP199 T00670028 $
Loading
Personal Weather Stations






























Interactive Weather Map New forecast layout! Learn more

10-Day Weather Forecast

Advertisements
Track Severe Weather on mobile